Time;durP1;ratioP1;P1;durP2;ratioP2;P2;SDS_P1;SDS_P2;PMS_P1;PMS_P2;Temp;Humidity;BMP_temperature;BMP_pressure;BME280_temperature;BME280_humidity;BME280_pressure;Samples;Min_cycle;Max_cycle;Signal;HPM_P1;HPM_P2
2023/10/08 00:02:30;;;;;;;;;;;;;;;8.95;76.73;95729.94;5113638;28;1099;-58
2023/10/08 00:04:57;;;;;;;;;;;;;;;9.01;76.41;95725.00;5113509;28;1913;-58
2023/10/08 00:07:27;;;;;;;;;;;;;;;9.08;76.00;95718.16;5113527;28;1004;-58
2023/10/08 00:09:53;;;;;;;;;;;;;;;8.98;75.93;95721.63;5113569;28;1056;-58
2023/10/08 00:12:20;;;;;;;;;;;;;;;8.97;76.37;95703.97;5113439;28;1082;-58
2023/10/08 00:14:49;;;;;;;;;;;;;;;9.10;75.90;95701.00;5113506;28;1028;-58
2023/10/08 00:17:16;;;;;;;;;;;;;;;9.12;75.85;95699.03;5113492;28;957;-58
2023/10/08 00:19:43;;;;;;;;;;;;;;;9.11;75.62;95707.22;5113492;28;992;-58
2023/10/08 00:22:10;;;;;;;;;;;;;;;8.89;76.30;95708.28;5113400;28;1007;-58
2023/10/08 00:24:40;;;;;;;;;;;;;;;8.95;75.97;95705.06;5116162;28;1992;-58
2023/10/08 00:27:06;;;;;;;;;;;;;;;9.14;75.02;95699.78;5117495;28;1060;-58
2023/10/08 00:29:32;;;;;;;;;;;;;;;9.19;74.67;95700.19;5125142;27;1187;-58
2023/10/08 00:31:58;;;;;;;;;;;;;;;8.99;76.35;95699.31;5137649;27;1028;-58
2023/10/08 00:34:27;;;;;;;;;;;;;;;8.90;76.28;95707.31;5137715;27;1042;-58
2023/10/08 00:36:53;;;;;;;;;;;;;;;8.95;76.09;95710.38;5137897;27;1027;-58
2023/10/08 00:39:24;;;;;;;;;;;;;;;8.70;77.41;95709.06;5137816;27;948;-58
2023/10/08 00:41:51;;;;;;;;;;;;;;;8.61;77.93;95713.38;5137425;27;1121;-58
2023/10/08 00:44:22;;;;;;;;;;;;;;;8.54;78.07;95709.59;5137785;27;1000;-59
2023/10/08 00:46:49;;;;;;;;;;;;;;;8.79;76.98;95702.94;5137824;27;1901;-59
2023/10/08 00:49:48;;;;;;;;;;;;;;;9.02;75.90;95700.88;5137656;27;1023;-58
2023/10/08 00:57:21;;;;;;;;;;;;;;;8.73;76.23;95696.31;5137547;27;1003;-58
2023/10/08 00:59:55;;;;;;;;;;;;;;;8.82;75.87;95692.00;5123459;27;1157;-58
2023/10/08 01:02:24;;;;;;;;;;;;;;;8.72;76.52;95683.13;5116588;28;1037;-58
2023/10/08 01:04:51;;;;;;;;;;;;;;;8.63;77.42;95683.94;5116512;28;1918;-58
2023/10/08 01:07:18;;;;;;;;;;;;;;;8.83;76.49;95674.16;5116633;28;1207;-58
2023/10/08 01:09:49;;;;;;;;;;;;;;;8.67;76.75;95686.22;5116769;28;973;-58
2023/10/08 01:12:22;;;;;;;;;;;;;;;8.78;76.17;95670.09;5116698;28;1057;-59
2023/10/08 01:14:50;;;;;;;;;;;;;;;8.64;77.03;95669.63;5116752;28;1026;-58
2023/10/08 01:17:16;;;;;;;;;;;;;;;8.45;77.54;95667.75;5116578;28;1048;-58
2023/10/08 01:19:45;;;;;;;;;;;;;;;8.50;77.97;95678.84;5116434;28;973;-58
2023/10/08 01:22:21;;;;;;;;;;;;;;;8.78;76.69;95675.44;5116428;28;958;-58
2023/10/08 01:24:51;;;;;;;;;;;;;;;8.68;76.90;95681.72;5116395;28;1914;-58
2023/10/08 01:27:24;;;;;;;;;;;;;;;8.53;77.51;95679.41;5117543;27;1013;-58
2023/10/08 01:29:51;;;;;;;;;;;;;;;8.39;77.59;95679.78;5126122;27;1226;-58
2023/10/08 01:32:19;;;;;;;;;;;;;;;8.05;79.09;95682.72;5116080;28;1035;-58
2023/10/08 01:34:48;;;;;;;;;;;;;;;7.90;79.57;95684.03;5115682;28;1029;-59
2023/10/08 01:37:16;;;;;;;;;;;;;;;8.14;79.10;95668.59;5115824;28;1020;-58
2023/10/08 01:39:46;;;;;;;;;;;;;;;8.11;79.04;95681.34;5097797;28;958;-58
2023/10/08 01:42:17;;;;;;;;;;;;;;;8.08;79.17;95677.13;5115958;28;993;-58
2023/10/08 01:44:47;;;;;;;;;;;;;;;8.16;78.98;95671.13;5115887;28;1987;-59
2023/10/08 01:47:15;;;;;;;;;;;;;;;7.78;80.49;95668.13;5115776;28;992;-58
2023/10/08 01:49:45;;;;;;;;;;;;;;;8.00;79.53;95666.28;5115803;28;1056;-59
2023/10/08 01:52:21;;;;;;;;;;;;;;;8.19;78.48;95662.84;5115661;28;1100;-59
2023/10/08 01:54:54;;;;;;;;;;;;;;;8.53;77.32;95654.59;5097207;28;1146;-58
2023/10/08 01:57:19;;;;;;;;;;;;;;;8.48;77.28;95651.47;5115464;28;1017;-58
2023/10/08 01:59:45;;;;;;;;;;;;;;;8.21;78.61;95658.22;5101766;28;1309;-58
2023/10/08 02:02:15;;;;;;;;;;;;;;;8.24;78.35;95647.31;5095086;28;1012;-58
2023/10/08 02:04:41;;;;;;;;;;;;;;;8.09;78.99;95651.31;5076975;28;1990;-58
2023/10/08 02:07:08;;;;;;;;;;;;;;;8.20;78.60;95652.06;5094965;28;1056;-58
2023/10/08 02:09:34;;;;;;;;;;;;;;;8.20;78.88;95651.22;5094971;28;984;-58
2023/10/08 02:12:00;;;;;;;;;;;;;;;8.24;78.46;95655.31;5094864;28;1112;-58
2023/10/08 02:14:30;;;;;;;;;;;;;;;8.22;78.79;95657.25;5094755;28;1036;-58
2023/10/08 02:16:56;;;;;;;;;;;;;;;8.15;78.95;95662.28;5094862;28;957;-58
2023/10/08 02:19:31;;;;;;;;;;;;;;;8.15;78.74;95659.59;5107459;28;1217;-58
2023/10/08 02:21:57;;;;;;;;;;;;;;;7.90;78.96;95657.41;5115297;28;964;-59
2023/10/08 02:24:24;;;;;;;;;;;;;;;7.45;80.76;95663.84;5114939;28;1099;-59
2023/10/08 02:26:51;;;;;;;;;;;;;;;7.34;81.70;95653.25;5115045;28;1902;-61
2023/10/08 02:29:17;;;;;;;;;;;;;;;7.43;81.31;95661.31;5120688;27;1271;-60
2023/10/08 02:31:43;;;;;;;;;;;;;;;7.57;80.89;95662.81;5135723;27;1021;-60
2023/10/08 02:34:09;;;;;;;;;;;;;;;7.53;80.78;95658.75;5135635;27;1028;-59
2023/10/08 02:36:40;;;;;;;;;;;;;;;7.70;80.63;95653.78;5135261;27;1910;-59
2023/10/08 02:39:25;;;;;;;;;;;;;;;8.02;79.23;95651.88;5135647;27;1129;-59
2023/10/08 02:41:54;;;;;;;;;;;;;;;7.78;80.27;95648.66;5135342;27;991;-60
2023/10/08 02:44:20;;;;;;;;;;;;;;;7.72;80.72;95654.47;5135374;27;973;-60
2023/10/08 02:46:48;;;;;;;;;;;;;;;7.72;80.69;95658.00;5116175;27;1032;-60
2023/10/08 02:49:19;;;;;;;;;;;;;;;7.88;80.08;95649.53;5135234;27;970;-60
2023/10/08 02:51:51;;;;;;;;;;;;;;;7.88;80.37;95646.88;5117064;27;1015;-60
2023/10/08 02:54:31;;;;;;;;;;;;;;;7.95;80.23;95639.22;5133470;27;1160;-59
2023/10/08 02:57:02;;;;;;;;;;;;;;;7.91;79.55;95643.09;5134326;27;1374;-59
2023/10/08 02:59:28;;;;;;;;;;;;;;;7.78;79.59;95646.84;5123920;27;1200;-60
2023/10/08 03:01:55;;;;;;;;;;;;;;;7.75;79.78;95662.22;5114467;28;967;-60
2023/10/08 03:04:22;;;;;;;;;;;;;;;7.71;80.45;95660.81;5114177;28;1099;-60
2023/10/08 03:06:49;;;;;;;;;;;;;;;7.88;79.86;95656.69;5114180;28;1056;-60
2023/10/08 03:09:20;;;;;;;;;;;;;;;7.87;79.91;95661.16;5114069;28;1079;-60
2023/10/08 03:11:48;;;;;;;;;;;;;;;7.49;81.44;95667.09;5114189;28;1075;-60
2023/10/08 03:14:21;;;;;;;;;;;;;;;7.22;82.27;95669.28;5114047;28;1185;-60
2023/10/08 03:16:51;;;;;;;;;;;;;;;7.30;82.56;95652.66;5114342;28;1977;-60
2023/10/08 03:19:20;;;;;;;;;;;;;;;7.66;80.93;95649.69;5114641;28;1032;-60
2023/10/08 03:21:56;;;;;;;;;;;;;;;7.77;80.48;95649.63;5114021;28;1029;-60
2023/10/08 03:27:12;;;;;;;;;;;;;;;7.59;80.84;95652.06;5113985;28;1164;-60
2023/10/08 03:29:41;;;;;;;;;;;;;;;7.47;81.66;95655.72;5113933;28;1144;-59
2023/10/08 03:32:13;;;;;;;;;;;;;;;7.65;80.87;95664.81;5113936;28;1071;-60
2023/10/08 03:34:43;;;;;;;;;;;;;;;7.63;80.77;95659.63;5113864;28;1910;-60
2023/10/08 03:37:09;;;;;;;;;;;;;;;7.70;80.50;95667.09;5113832;28;1095;-60
2023/10/08 03:42:20;;;;;;;;;;;;;;;7.33;81.77;95667.53;5113748;28;1134;-60
2023/10/08 03:44:51;;;;;;;;;;;;;;;7.44;81.32;95662.16;5113772;28;1523;-60
2023/10/08 03:47:26;;;;;;;;;;;;;;;7.26;82.31;95661.03;5114013;28;1268;-59
2023/10/08 03:49:54;;;;;;;;;;;;;;;7.29;81.92;95676.75;5114098;28;956;-60
2023/10/08 03:52:24;;;;;;;;;;;;;;;7.38;81.66;95673.31;5113603;28;1044;-60
2023/10/08 03:55:04;;;;;;;;;;;;;;;7.54;81.00;95667.56;5113981;28;1929;-60
2023/10/08 03:57:41;;;;;;;;;;;;;;;7.54;80.55;95673.72;5114497;28;1076;-60
2023/10/08 04:00:12;;;;;;;;;;;;;;;7.47;81.33;95675.19;5116323;27;1201;-60
2023/10/08 04:02:46;;;;;;;;;;;;;;;7.30;81.34;95670.44;5138553;27;992;-58
2023/10/08 04:05:19;;;;;;;;;;;;;;;7.24;81.89;95679.78;5138295;27;1052;-59
2023/10/08 04:13:09;;;;;;;;;;;;;;;7.55;80.62;95670.09;5138307;27;968;-58
2023/10/08 04:15:41;;;;;;;;;;;;;;;7.48;80.71;95673.41;5137968;27;1990;-58
2023/10/08 04:18:08;;;;;;;;;;;;;;;7.17;82.06;95683.91;5138041;27;1028;-58
2023/10/08 04:20:38;;;;;;;;;;;;;;;7.14;82.10;95678.88;5138113;27;995;-58
2023/10/08 04:23:18;;;;;;;;;;;;;;;7.09;82.17;95671.25;5138213;27;1119;-58
2023/10/08 04:25:44;;;;;;;;;;;;;;;7.18;82.36;95669.66;5138090;27;976;-58
2023/10/08 04:28:14;;;;;;;;;;;;;;;7.25;81.85;95676.16;5137827;27;1036;-58
2023/10/08 04:30:41;;;;;;;;;;;;;;;7.35;81.87;95662.94;5137830;27;1107;-58
2023/10/08 04:33:11;;;;;;;;;;;;;;;7.34;81.53;95666.56;5137757;27;1084;-58
2023/10/08 04:35:47;;;;;;;;;;;;;;;7.29;82.01;95661.63;5137701;27;1913;-58
2023/10/08 04:38:28;;;;;;;;;;;;;;;7.24;81.94;95656.69;5137642;27;1103;-57
2023/10/08 04:40:54;;;;;;;;;;;;;;;7.20;81.80;95657.09;5137682;27;1032;-58
2023/10/08 04:43:27;;;;;;;;;;;;;;;7.22;81.48;95652.47;5137523;27;1083;-60
2023/10/08 04:45:57;;;;;;;;;;;;;;;7.09;82.01;95657.97;5137475;27;1052;-59
2023/10/08 04:48:32;;;;;;;;;;;;;;;6.98;82.69;95664.19;5138110;27;974;-59
2023/10/08 04:51:05;;;;;;;;;;;;;;;7.05;82.16;95656.53;5137186;27;1641;-60
2023/10/08 04:53:44;;;;;;;;;;;;;;;7.16;81.98;95663.63;5137498;27;933;-60
2023/10/08 04:56:18;;;;;;;;;;;;;;;7.14;81.90;95665.56;5137549;27;1906;-58
2023/10/08 04:58:51;;;;;;;;;;;;;;;6.95;83.21;95660.94;5137505;27;1608;-58
2023/10/08 05:01:38;;;;;;;;;;;;;;;7.09;82.22;95665.09;5137250;27;1408;-58
2023/10/08 05:04:26;;;;;;;;;;;;;;;7.03;82.65;95664.63;5137198;27;1000;-60
2023/10/08 05:07:03;;;;;;;;;;;;;;;7.06;82.10;95668.00;5120170;27;1143;-60
2023/10/08 05:12:45;;;;;;;;;;;;;;;7.18;82.67;95651.88;5111140;27;1167;-60
2023/10/08 05:15:33;;;;;;;;;;;;;;;7.46;81.52;95659.38;5136016;27;1905;-60
2023/10/08 05:21:04;;;;;;;;;;;;;;;7.64;82.24;95665.78;5136803;27;1502;-61
2023/10/08 05:24:08;;;;;;;;;;;;;;;7.98;81.15;95663.72;5136849;27;1467;-60
2023/10/08 05:26:45;;;;;;;;;;;;;;;8.27;80.11;95664.84;5136790;27;928;-60
2023/10/08 05:38:13;;;;;;;;;;;;;;;9.66;75.56;95653.25;5116041;28;2221;-60
2023/10/08 05:52:24;;;;;;;;;;;;;;;16.96;50.16;95688.78;5115898;28;1011;-61
2023/10/08 05:54:57;;;;;;;;;;;;;;;17.86;48.06;95689.41;5115387;28;1991;-61
2023/10/08 05:57:38;;;;;;;;;;;;;;;19.28;43.02;95701.88;5115613;28;1435;-61
2023/10/08 06:03:03;;;;;;;;;;;;;;;20.83;40.16;95710.91;5094980;28;1019;-61
2023/10/08 06:05:47;;;;;;;;;;;;;;;22.09;37.86;95722.34;5094961;28;1017;-61
2023/10/08 06:08:38;;;;;;;;;;;;;;;22.20;37.35;95721.66;5095141;28;903;-59
2023/10/08 06:11:27;;;;;;;;;;;;;;;22.12;37.10;95721.94;5095048;28;913;-61
2023/10/08 06:14:00;;;;;;;;;;;;;;;22.12;37.83;95721.94;5095147;28;1306;-60
2023/10/08 06:16:41;;;;;;;;;;;;;;;21.88;37.97;95714.53;5094566;28;1991;-60
2023/10/08 06:19:16;;;;;;;;;;;;;;;21.14;39.40;95700.38;5094768;28;922;-61
2023/10/08 06:21:50;;;;;;;;;;;;;;;19.34;42.35;95705.66;5094710;28;940;-61
2023/10/08 06:24:25;;;;;;;;;;;;;;;17.32;48.20;95675.28;5094881;28;1019;-61
2023/10/08 06:27:04;;;;;;;;;;;;;;;16.36;49.88;95668.97;5094646;28;984;-61
2023/10/08 06:29:44;;;;;;;;;;;;;;;15.39;53.53;95659.66;5102847;28;1266;-60
2023/10/08 06:32:18;;;;;;;;;;;;;;;15.16;55.83;95648.84;5114859;28;1559;-60
2023/10/08 06:34:56;;;;;;;;;;;;;;;15.32;56.38;95650.59;5114940;28;2001;-61
2023/10/08 06:37:33;;;;;;;;;;;;;;;14.87;56.71;95654.88;5114688;28;976;-59
2023/10/08 06:40:23;;;;;;;;;;;;;;;14.73;56.61;95656.47;5114884;28;1500;-59
2023/10/08 06:43:03;;;;;;;;;;;;;;;15.01;56.73;95656.84;5115113;28;888;-59
2023/10/08 06:45:40;;;;;;;;;;;;;;;14.97;56.53;95654.69;5115021;28;965;-60
2023/10/08 06:48:20;;;;;;;;;;;;;;;15.24;56.36;95661.44;5114604;28;1116;-60
2023/10/08 06:50:56;;;;;;;;;;;;;;;15.59;54.74;95670.81;5097830;28;938;-61
2023/10/08 06:53:31;;;;;;;;;;;;;;;16.09;53.12;95665.88;5114634;28;928;-61
2023/10/08 06:56:05;;;;;;;;;;;;;;;16.23;53.41;95664.22;5114770;28;1934;-61
2023/10/08 06:58:45;;;;;;;;;;;;;;;16.22;53.48;95673.34;5114330;28;1145;-61
2023/10/08 07:01:21;;;;;;;;;;;;;;;16.29;52.51;95668.03;5114434;28;1400;-61
2023/10/08 07:04:03;;;;;;;;;;;;;;;16.18;54.19;95659.38;5114531;28;1427;-59
2023/10/08 07:06:39;;;;;;;;;;;;;;;16.44;53.68;95655.41;5114435;28;937;-59
2023/10/08 07:11:11;;;;;;;;;;;;;;;16.73;53.21;95649.19;5117124;27;1309632;-60
2023/10/08 07:13:39;;;;;;;;;;;;;;;16.95;52.83;95660.91;5152572;27;1030;-59
2023/10/08 07:16:11;;;;;;;;;;;;;;;16.82;52.94;95651.75;5152489;27;1115;-60
2023/10/08 07:18:38;;;;;;;;;;;;;;;16.91;54.16;95648.81;5152694;27;1028;-59
2023/10/08 07:21:11;;;;;;;;;;;;;;;17.30;52.19;95647.63;5152549;27;1064;-58
2023/10/08 07:23:55;;;;;;;;;;;;;;;17.50;51.18;95644.28;5152546;27;985;-58
2023/10/08 07:26:38;;;;;;;;;;;;;;;17.96;50.83;95649.31;5152244;27;967;-59
2023/10/08 07:29:07;;;;;;;;;;;;;;;18.04;50.56;95643.78;5147731;27;2870;-60
2023/10/08 07:31:34;;;;;;;;;;;;;;;17.98;50.47;95644.53;5152115;27;1111;-59
2023/10/08 07:34:15;;;;;;;;;;;;;;;18.15;49.65;95636.97;5152294;27;1042;-60
2023/10/08 07:36:47;;;;;;;;;;;;;;;18.32;49.99;95645.66;5152131;27;1094;-60
2023/10/08 07:39:26;;;;;;;;;;;;;;;18.50;48.23;95654.09;5152308;27;1044;-59
2023/10/08 07:41:53;;;;;;;;;;;;;;;18.36;49.04;95641.50;5150565;27;2470;-58
2023/10/08 07:44:21;;;;;;;;;;;;;;;18.27;48.12;95645.41;5152144;27;956;-58
2023/10/08 07:46:51;;;;;;;;;;;;;;;18.39;48.63;95638.41;5151768;27;1036;-58
2023/10/08 07:49:17;;;;;;;;;;;;;;;18.73;47.40;95647.59;5151829;27;1993;-58
2023/10/08 07:51:50;;;;;;;;;;;;;;;18.91;46.93;95638.94;5151935;27;977;-58
2023/10/08 07:54:19;;;;;;;;;;;;;;;19.01;46.03;95641.28;5151664;27;1076;-57
2023/10/08 07:56:48;;;;;;;;;;;;;;;19.17;46.21;95640.94;5151636;27;1052;-58
2023/10/08 07:59:16;;;;;;;;;;;;;;;19.30;45.87;95643.69;5151444;27;1146;-58
2023/10/08 08:01:43;;;;;;;;;;;;;;;19.48;44.89;95644.97;5151508;27;1091;-58
2023/10/08 08:04:22;;;;;;;;;;;;;;;19.49;44.88;95642.06;5151392;27;924;-57
2023/10/08 08:06:49;;;;;;;;;;;;;;;19.53;44.30;95636.25;5151677;27;964;-58
2023/10/08 08:09:19;;;;;;;;;;;;;;;19.71;44.35;95628.38;5151513;27;1948;-57
2023/10/08 08:11:48;;;;;;;;;;;;;;;19.62;44.16;95619.56;5132866;27;1158;-58
2023/10/08 08:14:16;;;;;;;;;;;;;;;19.81;44.41;95607.13;5151210;27;1123;-58
2023/10/08 08:16:46;;;;;;;;;;;;;;;19.95;43.73;95615.25;5151219;27;1198;-57
2023/10/08 08:19:12;;;;;;;;;;;;;;;20.14;44.09;95603.56;5151163;27;1123;-58
2023/10/08 08:21:44;;;;;;;;;;;;;;;20.36;43.21;95598.75;5142944;27;1043;-58
2023/10/08 08:24:21;;;;;;;;;;;;;;;20.39;43.55;95594.75;5137619;27;1040;-58
2023/10/08 08:29:44;;;;;;;;;;;;;;;20.76;42.74;95592.41;5137062;27;1914;-57
2023/10/08 08:32:15;;;;;;;;;;;;;;;21.00;42.57;95590.84;5137522;27;1023;-57
2023/10/08 08:34:43;;;;;;;;;;;;;;;20.93;42.62;95587.34;5119050;27;956;-58
2023/10/08 08:37:13;;;;;;;;;;;;;;;21.01;42.44;95577.03;5137460;27;967;-58
2023/10/08 08:39:41;;;;;;;;;;;;;;;21.28;41.15;95582.34;5118688;27;1012;-58
2023/10/08 08:42:07;;;;;;;;;;;;;;;21.70;40.48;95577.28;5137196;27;953;-58
2023/10/08 08:44:45;;;;;;;;;;;;;;;21.86;39.25;95589.53;5137091;27;1027;-58
2023/10/08 08:47:17;;;;;;;;;;;;;;;21.74;39.55;95583.13;5136915;27;1060;-58
2023/10/08 08:49:44;;;;;;;;;;;;;;;22.00;39.19;95588.38;5136738;27;1995;-58
2023/10/08 08:52:12;;;;;;;;;;;;;;;22.32;39.79;95577.44;5136651;27;1158;-58
2023/10/08 08:54:38;;;;;;;;;;;;;;;22.61;37.95;95580.50;5136551;27;1061;-57
2023/10/08 08:57:06;;;;;;;;;;;;;;;22.73;37.66;95591.50;5136997;27;969;-58
2023/10/08 08:59:36;;;;;;;;;;;;;;;22.89;37.90;95579.97;5136728;27;1169;-58
2023/10/08 09:02:04;;;;;;;;;;;;;;;23.04;37.00;95576.06;5136695;27;1048;-57
2023/10/08 09:04:30;;;;;;;;;;;;;;;23.27;36.82;95567.97;5136406;27;969;-58
2023/10/08 09:06:57;;;;;;;;;;;;;;;23.25;36.62;95570.09;5136224;27;1090;-58
2023/10/08 09:09:30;;;;;;;;;;;;;;;23.19;36.29;95566.41;5135992;27;1992;-58
2023/10/08 09:11:57;;;;;;;;;;;;;;;23.27;36.87;95565.25;5136214;27;1099;-58
2023/10/08 09:14:27;;;;;;;;;;;;;;;23.11;36.55;95565.91;5136399;27;922;-58
2023/10/08 09:16:54;;;;;;;;;;;;;;;22.92;36.50;95567.78;5136333;27;957;-58
2023/10/08 09:19:22;;;;;;;;;;;;;;;23.22;36.78;95567.00;5136079;27;1107;-58
2023/10/08 09:22:00;;;;;;;;;;;;;;;23.19;36.84;95563.69;5136107;27;925;-58
2023/10/08 09:24:26;;;;;;;;;;;;;;;23.16;35.15;95568.75;5117838;27;1035;-58
2023/10/08 09:26:52;;;;;;;;;;;;;;;23.32;35.44;95553.66;5136132;27;965;-58
2023/10/08 09:29:22;;;;;;;;;;;;;;;23.48;33.82;95554.91;5135871;27;1978;-58
2023/10/08 09:31:58;;;;;;;;;;;;;;;23.30;33.10;95555.78;5135979;27;1032;-58
2023/10/08 09:34:29;;;;;;;;;;;;;;;23.23;32.49;95563.22;5117087;27;1000;-59
2023/10/08 09:37:01;;;;;;;;;;;;;;;23.47;32.43;95545.88;5136244;27;1023;-57
2023/10/08 09:39:29;;;;;;;;;;;;;;;23.73;33.64;95543.81;5135783;27;1056;-57
2023/10/08 09:41:55;;;;;;;;;;;;;;;23.63;33.17;95544.38;5117726;27;1049;-57
2023/10/08 09:44:25;;;;;;;;;;;;;;;23.63;32.64;95544.38;5136113;27;1126;-58
2023/10/08 09:46:58;;;;;;;;;;;;;;;23.83;33.38;95537.78;5135980;27;1027;-58
2023/10/08 09:49:29;;;;;;;;;;;;;;;24.04;32.92;95533.69;5135732;27;1905;-58
2023/10/08 09:51:55;;;;;;;;;;;;;;;24.38;33.71;95528.44;5135842;27;937;-57
2023/10/08 09:54:25;;;;;;;;;;;;;;;24.32;32.47;95530.22;5135893;27;948;-59
2023/10/08 09:56:52;;;;;;;;;;;;;;;24.44;32.58;95531.06;5135717;27;983;-58
2023/10/08 09:59:19;;;;;;;;;;;;;;;24.25;31.85;95519.44;5125429;27;1153;-58
2023/10/08 10:01:47;;;;;;;;;;;;;;;24.36;31.21;95525.97;5115106;28;969;-58
2023/10/08 10:04:23;;;;;;;;;;;;;;;24.37;30.87;95522.16;5114853;28;1080;-58
2023/10/08 10:06:50;;;;;;;;;;;;;;;24.35;32.64;95516.91;5114982;28;1063;-59
2023/10/08 10:09:24;;;;;;;;;;;;;;;24.44;30.87;95514.66;5114818;28;1980;-59
2023/10/08 10:11:51;;;;;;;;;;;;;;;24.62;30.76;95524.63;5116695;27;2534;-59
2023/10/08 10:14:18;;;;;;;;;;;;;;;24.74;31.70;95516.44;5114546;28;1024;-58
2023/10/08 10:16:48;;;;;;;;;;;;;;;24.86;31.62;95510.94;5114830;28;1032;-59
2023/10/08 10:19:20;;;;;;;;;;;;;;;24.87;31.92;95507.09;5114637;28;953;-58
2023/10/08 10:21:47;;;;;;;;;;;;;;;24.59;32.39;95506.00;5114522;28;999;-59
2023/10/08 10:24:27;;;;;;;;;;;;;;;24.71;31.23;95505.97;5114446;28;1103;-59
2023/10/08 10:27:10;;;;;;;;;;;;;;;24.92;31.59;95499.84;5114830;28;1030;-59
2023/10/08 10:29:36;;;;;;;;;;;;;;;25.05;31.59;95498.72;5114589;28;1984;-59
2023/10/08 10:32:05;;;;;;;;;;;;;;;24.76;31.51;95492.41;5096066;28;1373;-59
2023/10/08 10:34:34;;;;;;;;;;;;;;;24.65;31.40;95482.34;5114198;28;1043;-59
2023/10/08 10:37:19;;;;;;;;;;;;;;;24.78;31.55;95476.59;5114222;28;1063;-58
2023/10/08 10:39:52;;;;;;;;;;;;;;;24.94;31.31;95483.19;5114545;28;1036;-58
2023/10/08 10:42:21;;;;;;;;;;;;;;;25.03;31.46;95479.00;5114437;28;1052;-58
2023/10/08 10:44:49;;;;;;;;;;;;;;;25.17;31.20;95475.97;5095952;28;1040;-59
2023/10/08 10:52:31;;;;;;;;;;;;;;;25.48;30.60;95471.94;5114283;28;1111;-59
2023/10/08 10:55:17;;;;;;;;;;;;;;;25.56;30.49;95460.56;5096037;28;1060;-59
2023/10/08 10:57:55;;;;;;;;;;;;;;;25.62;30.31;95461.47;5095885;28;1025;-59
2023/10/08 11:00:47;;;;;;;;;;;;;;;25.66;30.11;95452.50;5132567;27;1197;-59
2023/10/08 11:03:16;;;;;;;;;;;;;;;25.92;31.38;95443.91;5116358;28;1032;-58
2023/10/08 11:05:48;;;;;;;;;;;;;;;26.07;29.95;95442.22;5116197;27;1036;-60
2023/10/08 11:08:15;;;;;;;;;;;;;;;26.19;30.86;95435.81;5116218;28;1044;-59
2023/10/08 11:10:49;;;;;;;;;;;;;;;26.15;30.38;95431.91;5134414;28;2008;-59
2023/10/08 11:13:15;;;;;;;;;;;;;;;26.10;30.09;95428.03;5134613;28;961;-59
2023/10/08 11:15:42;;;;;;;;;;;;;;;26.22;30.06;95424.34;5134666;28;1192;-59
2023/10/08 11:18:11;;;;;;;;;;;;;;;26.08;30.62;95415.63;5134362;28;1021;-59
2023/10/08 11:20:39;;;;;;;;;;;;;;;26.25;30.43;95410.94;5134546;28;946;-59
2023/10/08 11:23:18;;;;;;;;;;;;;;;26.49;30.41;95410.72;5134320;28;1044;-58
2023/10/08 11:26:03;;;;;;;;;;;;;;;26.63;29.17;95417.47;5134512;28;965;-59
2023/10/08 11:28:33;;;;;;;;;;;;;;;26.62;29.69;95409.53;5134465;28;1043;-58
2023/10/08 11:31:09;;;;;;;;;;;;;;;26.66;29.67;95410.69;5134128;28;1906;-59
2023/10/08 11:33:36;;;;;;;;;;;;;;;26.37;29.76;95408.09;5134194;28;921;-59
2023/10/08 11:36:27;;;;;;;;;;;;;;;26.02;30.36;95406.53;5134348;28;1032;-59
2023/10/08 11:39:00;;;;;;;;;;;;;;;25.77;30.57;95392.44;5134175;28;1095;-58
2023/10/08 11:41:27;;;;;;;;;;;;;;;25.73;31.51;95391.28;5134172;28;1036;-58
2023/10/08 11:43:57;;;;;;;;;;;;;;;25.91;31.01;95393.72;5134145;28;1002;-59
2023/10/08 11:46:32;;;;;;;;;;;;;;;26.21;31.36;95384.31;5133993;28;1207;-59
2023/10/08 11:49:04;;;;;;;;;;;;;;;26.37;31.12;95382.59;5134113;28;1905;-58
2023/10/08 11:51:32;;;;;;;;;;;;;;;26.25;31.37;95390.94;5134112;28;965;-59
2023/10/08 11:53:59;;;;;;;;;;;;;;;26.08;31.66;95377.28;5134268;28;1037;-60
2023/10/08 11:56:27;;;;;;;;;;;;;;;25.92;31.47;95375.44;5116869;27;1637;-59
2023/10/08 11:58:56;;;;;;;;;;;;;;;25.80;31.67;95379.06;5137849;27;1201;-59
2023/10/08 12:01:26;;;;;;;;;;;;;;;25.72;31.63;95374.00;5137914;27;1020;-58
2023/10/08 12:03:59;;;;;;;;;;;;;;;25.55;32.61;95368.53;5137869;27;953;-58
2023/10/08 12:06:29;;;;;;;;;;;;;;;25.47;32.61;95369.78;5137785;27;1040;-59
2023/10/08 12:08:58;;;;;;;;;;;;;;;25.38;32.29;95365.81;5137533;27;2012;-58
2023/10/08 12:11:34;;;;;;;;;;;;;;;25.35;32.65;95354.56;5137255;27;1598;-58
2023/10/08 12:14:00;;;;;;;;;;;;;;;25.31;32.77;95354.22;5137624;27;1040;-58
2023/10/08 12:16:29;;;;;;;;;;;;;;;25.30;32.77;95356.09;5134746;27;1518;-58
2023/10/08 12:18:59;;;;;;;;;;;;;;;25.28;33.74;95344.59;5136360;27;1131;-58
2023/10/08 12:21:25;;;;;;;;;;;;;;;25.25;33.57;95353.31;5137265;27;1032;-58
2023/10/08 12:23:52;;;;;;;;;;;;;;;25.20;33.46;95346.91;5137596;27;1051;-58
2023/10/08 12:26:19;;;;;;;;;;;;;;;25.11;34.33;95350.03;5137607;27;1026;-58
2023/10/08 12:28:45;;;;;;;;;;;;;;;24.98;33.68;95350.34;5137302;27;1090;-58
2023/10/08 12:31:12;;;;;;;;;;;;;;;24.89;34.37;95346.34;5137207;27;1910;-58
2023/10/08 12:33:40;;;;;;;;;;;;;;;24.84;33.96;95347.09;5137224;27;1091;-59
2023/10/08 12:36:12;;;;;;;;;;;;;;;24.82;34.38;95345.69;5137079;27;944;-59
2023/10/08 12:38:41;;;;;;;;;;;;;;;24.76;34.27;95344.78;5137219;27;1184;-58
2023/10/08 12:41:13;;;;;;;;;;;;;;;24.74;34.19;95347.75;5136983;27;1036;-58
2023/10/08 12:43:52;;;;;;;;;;;;;;;24.67;34.31;95349.78;5137437;27;956;-58
2023/10/08 12:46:23;;;;;;;;;;;;;;;24.62;34.52;95355.16;5137107;27;968;-58
2023/10/08 12:48:53;;;;;;;;;;;;;;;24.59;34.44;95352.94;5136983;27;1208;-58
2023/10/08 12:51:23;;;;;;;;;;;;;;;24.61;34.55;95358.16;5136639;27;1978;-58
2023/10/08 12:53:55;;;;;;;;;;;;;;;24.56;34.70;95356.13;5136893;27;1043;-59
2023/10/08 12:56:31;;;;;;;;;;;;;;;24.63;34.60;95358.75;5136710;27;1067;-58
2023/10/08 12:58:58;;;;;;;;;;;;;;;24.65;34.26;95357.41;5129512;27;1235;-58
2023/10/08 13:01:28;;;;;;;;;;;;;;;24.65;34.81;95354.69;5116320;28;1000;-58
2023/10/08 13:03:59;;;;;;;;;;;;;;;24.66;34.50;95363.69;5116393;28;957;-58
2023/10/08 13:06:28;;;;;;;;;;;;;;;24.67;34.88;95368.09;5115916;28;1107;-59
2023/10/08 13:08:55;;;;;;;;;;;;;;;24.64;34.80;95360.38;5135184;27;1253;-59
2023/10/08 13:11:25;;;;;;;;;;;;;;;24.65;34.43;95379.28;5156802;27;1910;-59
2023/10/08 13:13:57;;;;;;;;;;;;;;;24.64;34.76;95376.78;5156923;27;1028;-58
2023/10/08 13:16:24;;;;;;;;;;;;;;;24.66;34.59;95369.16;5139319;27;1182;-58
2023/10/08 13:18:52;;;;;;;;;;;;;;;24.63;34.57;95370.50;5136211;27;1087;-58
2023/10/08 13:21:24;;;;;;;;;;;;;;;24.59;34.60;95374.81;5131796;27;960;-58
2023/10/08 13:23:51;;;;;;;;;;;;;;;24.60;34.55;95378.34;5136266;27;1020;-58
2023/10/08 13:26:17;;;;;;;;;;;;;;;24.53;34.62;95375.78;5135729;27;1185;-58
2023/10/08 13:28:44;;;;;;;;;;;;;;;24.49;34.55;95375.41;5135990;27;1091;-58
2023/10/08 13:31:11;;;;;;;;;;;;;;;24.31;34.49;95368.19;5136145;27;1905;-58
2023/10/08 13:33:42;;;;;;;;;;;;;;;24.23;35.05;95365.84;5136281;27;1035;-58
2023/10/08 13:36:09;;;;;;;;;;;;;;;24.21;34.46;95354.34;5136072;27;1268;-59
2023/10/08 13:38:36;;;;;;;;;;;;;;;24.17;34.84;95362.19;5135963;27;1166;-58
2023/10/08 13:41:20;;;;;;;;;;;;;;;24.15;35.40;95350.69;5135834;27;1095;-58
2023/10/08 13:43:51;;;;;;;;;;;;;;;24.16;35.09;95355.03;5136091;27;1024;-59
2023/10/08 13:46:18;;;;;;;;;;;;;;;24.24;35.33;95355.75;5135432;27;1400;-59
2023/10/08 13:48:48;;;;;;;;;;;;;;;24.26;34.95;95354.41;5135642;27;1028;-58
2023/10/08 13:51:20;;;;;;;;;;;;;;;24.38;35.29;95345.34;5135691;27;2330;-59
2023/10/08 13:53:52;;;;;;;;;;;;;;;24.41;34.91;95347.63;5135860;27;1039;-59
2023/10/08 13:56:20;;;;;;;;;;;;;;;24.35;35.00;95355.72;5135426;27;1293;-60
2023/10/08 13:58:49;;;;;;;;;;;;;;;24.34;34.36;95337.66;5130301;27;1220;-60
2023/10/08 14:01:19;;;;;;;;;;;;;;;24.35;34.23;95342.03;5114843;28;956;-60
2023/10/08 14:03:48;;;;;;;;;;;;;;;24.45;34.63;95341.41;5114752;28;1072;-58
2023/10/08 14:06:17;;;;;;;;;;;;;;;24.46;34.45;95350.47;5116635;27;958;-58
2023/10/08 14:08:54;;;;;;;;;;;;;;;24.54;34.30;95344.63;5156035;27;1035;-58
2023/10/08 14:11:24;;;;;;;;;;;;;;;24.47;34.81;95341.16;5155798;27;1910;-59
2023/10/08 14:13:53;;;;;;;;;;;;;;;24.38;34.71;95343.47;5156185;27;993;-59
2023/10/08 14:16:23;;;;;;;;;;;;;;;24.38;34.49;95334.44;5155471;27;1028;-59
2023/10/08 14:18:53;;;;;;;;;;;;;;;24.40;34.54;95332.28;5155371;27;1027;-59
2023/10/08 14:21:23;;;;;;;;;;;;;;;24.31;34.60;95335.41;5155678;27;1061;-59